createdAt,value
2023-02-27T00:00:21.720Z,72.15
2023-02-27T00:03:14.449Z,72.35
2023-02-27T00:05:41.630Z,72.51
2023-02-27T00:08:08.939Z,71.63
2023-02-27T00:10:37.592Z,71.66
2023-02-27T00:13:06.922Z,72.03
2023-02-27T00:15:34.118Z,71.80
2023-02-27T00:18:01.356Z,72.18
2023-02-27T00:20:32.288Z,72.03
2023-02-27T00:23:02.430Z,71.65
2023-02-27T00:25:32.620Z,71.89
2023-02-27T00:28:00.343Z,72.03
2023-02-27T00:30:29.004Z,71.92
2023-02-27T00:32:56.651Z,71.79
2023-02-27T00:35:23.690Z,72.62
2023-02-27T00:37:51.133Z,72.51
2023-02-27T00:40:18.554Z,71.93
2023-02-27T00:42:46.377Z,71.66
2023-02-27T00:45:13.639Z,71.75
2023-02-27T00:47:42.340Z,71.44
2023-02-27T00:50:11.040Z,71.80
2023-02-27T00:52:38.483Z,71.90
2023-02-27T00:55:06.380Z,72.10
2023-02-27T00:57:34.050Z,71.98
2023-02-27T01:00:02.500Z,72.01
2023-02-27T01:02:29.730Z,71.84
2023-02-27T01:04:58.173Z,71.57
2023-02-27T01:07:25.483Z,71.68
2023-02-27T01:09:52.384Z,71.72
2023-02-27T01:12:19.835Z,71.94
2023-02-27T01:14:46.819Z,72.00
2023-02-27T01:17:14.231Z,72.17
2023-02-27T01:19:41.301Z,71.92
2023-02-27T01:22:09.966Z,72.34
2023-02-27T01:24:38.436Z,71.96
2023-02-27T01:27:05.882Z,72.62
2023-02-27T01:29:33.082Z,71.82
2023-02-27T01:32:00.619Z,72.12
2023-02-27T01:34:27.733Z,72.17
2023-02-27T01:36:55.073Z,71.91
2023-02-27T01:39:23.378Z,71.98
2023-02-27T01:41:50.608Z,71.66
2023-02-27T01:44:17.813Z,71.70
2023-02-27T01:46:45.057Z,71.73
2023-02-27T01:49:16.019Z,71.79
2023-02-27T01:51:46.707Z,71.52
2023-02-27T01:54:18.200Z,71.72
2023-02-27T01:56:47.612Z,72.04
2023-02-27T01:59:14.981Z,71.34
2023-02-27T02:01:42.821Z,71.54
2023-02-27T02:04:15.956Z,72.23
2023-02-27T02:06:47.533Z,72.14
2023-02-27T02:09:17.206Z,71.86
2023-02-27T02:11:46.126Z,71.82
2023-02-27T02:14:13.418Z,71.92
2023-02-27T02:16:57.204Z,71.64
2023-02-27T02:20:00.194Z,71.45
2023-02-27T02:23:11.861Z,71.66
2023-02-27T02:26:19.788Z,71.68
2023-02-27T02:29:29.802Z,71.40
2023-02-27T02:32:43.042Z,71.17
2023-02-27T02:35:38.942Z,71.53
2023-02-27T02:38:46.758Z,71.51
2023-02-27T02:41:23.698Z,71.50
2023-02-27T02:44:02.443Z,71.21
2023-02-27T02:46:39.960Z,71.22
2023-02-27T02:49:17.107Z,71.08
2023-02-27T02:51:50.634Z,71.33
2023-02-27T02:54:26.741Z,71.50
2023-02-27T02:56:59.236Z,71.53
2023-02-27T02:59:32.400Z,71.17
2023-02-27T03:02:04.368Z,71.46
2023-02-27T03:04:38.363Z,71.18
2023-02-27T03:07:13.909Z,71.49
2023-02-27T03:09:47.203Z,71.38
2023-02-27T03:12:19.829Z,70.84
2023-02-27T03:14:51.884Z,70.87
2023-02-27T03:17:25.005Z,71.17
2023-02-27T03:19:58.728Z,71.02
2023-02-27T03:22:31.904Z,70.90
2023-02-27T03:25:04.359Z,71.32
2023-02-27T03:27:37.741Z,71.22
2023-02-27T03:30:10.375Z,70.94
2023-02-27T03:32:43.722Z,70.63
2023-02-27T03:35:12.567Z,70.40
2023-02-27T03:37:45.042Z,70.67
2023-02-27T03:40:26.307Z,71.00
2023-02-27T03:42:57.775Z,71.01
2023-02-27T03:45:33.805Z,71.24
2023-02-27T03:48:01.997Z,71.26
2023-02-27T03:50:29.209Z,71.13
2023-02-27T03:52:57.591Z,71.24
2023-02-27T03:55:32.835Z,71.21
2023-02-27T03:58:00.898Z,71.29
2023-02-27T04:00:29.301Z,71.08
2023-02-27T04:02:58.449Z,70.84
2023-02-27T04:05:27.156Z,70.67
2023-02-27T04:08:11.981Z,70.59
2023-02-27T04:11:06.647Z,70.43
2023-02-27T04:13:48.621Z,71.04
2023-02-27T04:16:39.761Z,70.80
2023-02-27T04:19:35.954Z,70.69
2023-02-27T04:22:14.325Z,71.05
2023-02-27T04:25:01.822Z,70.96
2023-02-27T04:27:38.868Z,71.00
2023-02-27T04:30:16.873Z,71.04
2023-02-27T04:32:50.849Z,70.35
2023-02-27T04:35:25.080Z,70.30
2023-02-27T04:37:57.230Z,70.35
2023-02-27T04:40:30.873Z,70.94
2023-02-27T04:43:01.232Z,70.67
2023-02-27T04:45:33.193Z,70.49
2023-02-27T04:48:05.630Z,70.22
2023-02-27T04:50:38.835Z,70.38
2023-02-27T04:53:08.996Z,70.69
2023-02-27T04:55:42.905Z,70.41
2023-02-27T04:58:14.100Z,70.36
2023-02-27T05:00:45.244Z,70.33
2023-02-27T05:03:16.706Z,70.32
2023-02-27T05:05:47.864Z,70.28
2023-02-27T05:08:21.473Z,70.46
2023-02-27T05:10:55.633Z,70.50
2023-02-27T05:13:29.638Z,70.41
2023-02-27T05:16:00.379Z,70.85
2023-02-27T05:18:27.519Z,70.41
2023-02-27T05:21:05.856Z,70.36
2023-02-27T05:23:38.981Z,70.76
2023-02-27T05:26:19.876Z,70.94
2023-02-27T05:28:55.937Z,70.74
2023-02-27T05:31:30.104Z,70.58
2023-02-27T05:34:02.394Z,70.30
2023-02-27T05:36:34.813Z,70.53
2023-02-27T05:39:05.636Z,70.92
2023-02-27T05:41:38.717Z,70.44
2023-02-27T05:44:11.565Z,70.45
2023-02-27T05:46:43.369Z,70.51
2023-02-27T05:49:15.918Z,70.44
2023-02-27T05:51:47.492Z,70.04
2023-02-27T05:54:21.253Z,69.71
2023-02-27T05:56:52.194Z,69.53
2023-02-27T05:59:27.992Z,69.68
2023-02-27T06:01:55.870Z,70.01
2023-02-27T06:04:22.968Z,69.65
2023-02-27T06:06:50.341Z,69.52
2023-02-27T06:09:17.432Z,71.03
2023-02-27T06:11:44.717Z,70.92
2023-02-27T06:14:12.317Z,70.34
2023-02-27T06:16:40.676Z,69.95
2023-02-27T06:19:07.961Z,69.46
2023-02-27T06:21:34.926Z,69.58
2023-02-27T06:24:02.339Z,69.68
2023-02-27T06:26:29.494Z,69.73
2023-02-27T06:28:56.569Z,70.00
2023-02-27T06:31:27.670Z,69.37
2023-02-27T06:34:01.699Z,69.56
2023-02-27T06:36:30.047Z,69.50
2023-02-27T06:38:58.106Z,78.42
2023-02-27T06:41:25.269Z,78.84
2023-02-27T06:43:52.277Z,79.75
2023-02-27T06:46:21.631Z,76.34
2023-02-27T06:48:48.504Z,74.83
2023-02-27T06:51:17.174Z,67.02
2023-02-27T06:53:44.598Z,65.62
2023-02-27T06:56:13.756Z,65.75
2023-02-27T06:58:40.735Z,67.18
2023-02-27T07:01:08.122Z,67.40
2023-02-27T07:03:35.054Z,68.10
2023-02-27T07:06:02.505Z,68.23
2023-02-27T07:08:30.845Z,68.43
2023-02-27T07:10:58.358Z,68.33
2023-02-27T07:13:28.270Z,68.80
2023-02-27T07:15:55.627Z,68.92
2023-02-27T07:18:22.742Z,68.90
2023-02-27T07:20:51.450Z,68.85
2023-02-27T07:23:18.822Z,69.09
2023-02-27T07:25:51.321Z,69.03
2023-02-27T07:28:18.941Z,68.90
2023-02-27T07:30:46.717Z,69.89
2023-02-27T07:33:13.988Z,71.09
2023-02-27T07:35:52.398Z,69.19
2023-02-27T07:38:20.166Z,69.46
2023-02-27T07:40:53.628Z,69.40
2023-02-27T07:43:22.965Z,68.36
2023-02-27T07:46:03.503Z,67.99
2023-02-27T07:48:31.052Z,67.38
2023-02-27T07:50:58.757Z,66.76
2023-02-27T07:53:25.967Z,66.97
2023-02-27T07:55:55.141Z,66.68
2023-02-27T07:58:22.578Z,66.46
2023-02-27T08:00:50.711Z,65.66
2023-02-27T08:03:17.656Z,65.33
2023-02-27T08:05:49.219Z,65.48
2023-02-27T08:08:16.847Z,65.88
2023-02-27T08:10:44.490Z,65.10
2023-02-27T08:13:14.148Z,63.80
2023-02-27T08:15:41.895Z,64.75
2023-02-27T08:18:09.006Z,65.61
2023-02-27T08:20:37.065Z,65.32
2023-02-27T08:23:07.011Z,64.71
2023-02-27T08:25:35.006Z,64.58
2023-02-27T08:28:02.342Z,64.85
2023-02-27T08:30:35.340Z,64.78
2023-02-27T08:33:03.026Z,63.30
2023-02-27T08:35:33.620Z,63.67
2023-02-27T08:38:02.999Z,62.45
2023-02-27T08:40:30.962Z,63.46
2023-02-27T08:42:58.036Z,63.72
2023-02-27T08:45:27.182Z,63.68
2023-02-27T08:47:58.337Z,63.22
2023-02-27T08:50:25.707Z,62.12
2023-02-27T08:52:53.013Z,63.43
2023-02-27T08:55:21.643Z,62.56
2023-02-27T08:57:48.967Z,61.59
2023-02-27T09:00:19.366Z,62.66
2023-02-27T09:02:46.909Z,63.46
2023-02-27T09:05:16.966Z,62.89
2023-02-27T09:07:50.377Z,62.43
2023-02-27T09:10:20.503Z,62.34
2023-02-27T09:12:49.434Z,62.67
2023-02-27T09:15:19.453Z,60.83
2023-02-27T09:17:46.616Z,61.53
2023-02-27T09:20:15.985Z,62.32
2023-02-27T09:22:43.306Z,62.82
2023-02-27T09:25:10.848Z,61.73
2023-02-27T09:27:37.796Z,60.67
2023-02-27T09:30:06.377Z,60.77
2023-02-27T09:32:33.836Z,60.57
2023-02-27T09:35:01.147Z,60.25
2023-02-27T09:37:29.781Z,60.18
2023-02-27T09:39:57.445Z,60.13
2023-02-27T09:42:28.439Z,60.32
2023-02-27T09:44:58.206Z,59.82
2023-02-27T09:47:30.555Z,58.90
2023-02-27T09:50:01.832Z,57.50
2023-02-27T09:52:32.752Z,58.20
2023-02-27T09:55:00.589Z,58.83
2023-02-27T09:57:39.650Z,58.99
2023-02-27T10:00:16.544Z,58.09
2023-02-27T10:02:55.458Z,58.50
2023-02-27T10:05:30.216Z,58.94
2023-02-27T10:08:11.236Z,58.01
2023-02-27T10:10:47.132Z,56.54
2023-02-27T10:13:33.281Z,56.89
2023-02-27T10:16:02.079Z,57.36
2023-02-27T10:18:44.154Z,57.58
2023-02-27T10:21:25.420Z,56.20
2023-02-27T10:24:04.076Z,56.13
2023-02-27T10:26:38.787Z,58.10
2023-02-27T10:29:18.526Z,56.18
2023-02-27T10:31:52.740Z,56.42
2023-02-27T10:34:23.110Z,56.01
2023-02-27T10:36:53.073Z,56.27
2023-02-27T10:39:26.971Z,56.65
2023-02-27T10:42:04.659Z,54.93
2023-02-27T10:44:34.467Z,55.80
2023-02-27T10:47:02.507Z,55.40
2023-02-27T10:49:35.880Z,54.61
2023-02-27T10:52:07.605Z,55.35
2023-02-27T10:54:38.575Z,56.08
2023-02-27T10:57:22.221Z,55.74
2023-02-27T10:59:56.796Z,56.48
2023-02-27T11:02:32.474Z,55.41
2023-02-27T11:05:08.818Z,56.88
2023-02-27T11:07:39.663Z,56.45
2023-02-27T11:10:20.450Z,56.34
2023-02-27T11:13:01.042Z,55.28
2023-02-27T11:15:32.050Z,56.46
2023-02-27T11:18:26.879Z,55.19
2023-02-27T11:21:09.670Z,55.73
2023-02-27T11:23:56.521Z,56.20
2023-02-27T11:26:29.126Z,55.90
2023-02-27T11:29:18.389Z,55.43
2023-02-27T11:31:52.913Z,55.23
2023-02-27T11:37:38.207Z,55.47
2023-02-27T11:40:21.878Z,55.95
2023-02-27T11:46:46.634Z,55.90
2023-02-27T11:49:13.955Z,54.64
2023-02-27T11:51:54.802Z,55.32
2023-02-27T11:54:42.395Z,54.65
2023-02-27T11:57:31.232Z,54.57
2023-02-27T12:00:16.376Z,55.11
2023-02-27T12:02:48.518Z,55.56
2023-02-27T12:05:19.571Z,55.51
2023-02-27T12:11:14.485Z,53.94
2023-02-27T12:24:42.490Z,55.12
2023-02-27T12:27:23.342Z,55.06
2023-02-27T12:30:22.237Z,54.28
2023-02-27T12:33:10.818Z,53.80
2023-02-27T12:35:40.063Z,55.01
2023-02-27T12:38:23.433Z,54.63
2023-02-27T12:41:20.875Z,54.99
2023-02-27T12:44:09.190Z,54.86
2023-02-27T12:46:48.641Z,55.24
2023-02-27T12:52:56.457Z,54.65
2023-02-27T12:55:51.557Z,54.10
2023-02-27T13:01:33.428Z,54.08
2023-02-27T13:04:23.274Z,55.13
2023-02-27T13:07:01.543Z,54.47
2023-02-27T13:09:48.872Z,54.27
2023-02-27T13:12:29.797Z,55.46
2023-02-27T13:15:31.907Z,54.92
2023-02-27T13:18:10.066Z,54.34
2023-02-27T13:20:58.095Z,54.63
2023-02-27T13:24:17.929Z,54.40
2023-02-27T13:26:54.389Z,54.16
2023-02-27T13:29:24.341Z,54.38
2023-02-27T13:31:57.759Z,54.32
2023-02-27T13:34:35.291Z,54.34
2023-02-27T13:37:07.724Z,54.78
2023-02-27T13:40:01.331Z,54.65
2023-02-27T13:43:07.811Z,55.44
2023-02-27T13:45:51.742Z,55.58
2023-02-27T13:48:43.700Z,55.69
2023-02-27T13:51:48.553Z,55.76
2023-02-27T13:54:22.943Z,55.56
2023-02-27T13:57:09.035Z,55.20
2023-02-27T13:59:51.759Z,55.40
2023-02-27T14:02:32.788Z,55.12
2023-02-27T14:05:05.752Z,55.47
2023-02-27T14:07:49.715Z,55.60
2023-02-27T14:10:24.228Z,55.65
2023-02-27T14:12:59.045Z,53.61
2023-02-27T14:15:56.684Z,54.52
2023-02-27T14:22:04.286Z,54.40
2023-02-27T14:24:44.788Z,54.56
2023-02-27T14:27:24.038Z,54.28
2023-02-27T14:29:59.811Z,54.67
2023-02-27T14:32:32.790Z,54.88
2023-02-27T14:35:05.948Z,54.33
2023-02-27T14:37:40.112Z,54.82
2023-02-27T14:40:29.776Z,55.13
2023-02-27T14:43:10.745Z,55.76
2023-02-27T14:45:40.012Z,55.37
2023-02-27T14:48:09.360Z,55.72
2023-02-27T14:50:40.613Z,55.70
2023-02-27T14:53:23.690Z,56.08
2023-02-27T14:55:55.845Z,56.52
2023-02-27T14:58:24.035Z,55.99
2023-02-27T15:01:05.948Z,56.51
2023-02-27T15:03:38.949Z,56.17
2023-02-27T15:06:15.809Z,56.22
2023-02-27T15:08:46.940Z,56.35
2023-02-27T15:11:17.056Z,56.18
2023-02-27T15:13:45.834Z,56.81
2023-02-27T15:16:30.339Z,56.54
2023-02-27T15:18:59.975Z,56.67
2023-02-27T15:21:30.433Z,57.42
2023-02-27T15:24:02.153Z,57.17
2023-02-27T15:26:34.290Z,57.02
2023-02-27T15:29:04.176Z,57.62
2023-02-27T15:31:34.315Z,57.76
2023-02-27T15:34:05.630Z,58.32
2023-02-27T15:36:36.930Z,57.92
2023-02-27T15:39:17.825Z,57.81
2023-02-27T15:41:51.738Z,58.21
2023-02-27T15:44:23.982Z,58.55
2023-02-27T15:46:54.066Z,58.49
2023-02-27T15:49:24.272Z,58.86
2023-02-27T15:52:00.465Z,58.31
2023-02-27T15:54:33.491Z,59.04
2023-02-27T15:57:02.978Z,58.92
2023-02-27T15:59:33.098Z,59.55
2023-02-27T16:02:04.305Z,59.57
2023-02-27T16:04:33.253Z,59.82
2023-02-27T16:07:05.433Z,59.80
2023-02-27T16:09:34.682Z,60.41
2023-02-27T16:12:20.572Z,60.39
2023-02-27T16:14:49.649Z,60.28
2023-02-27T16:17:31.074Z,60.55
2023-02-27T16:20:25.619Z,59.91
2023-02-27T16:23:08.095Z,60.22
2023-02-27T16:25:36.661Z,60.32
2023-02-27T16:28:14.057Z,60.74
2023-02-27T16:30:43.899Z,60.95
2023-02-27T16:33:24.763Z,61.01
2023-02-27T16:36:15.821Z,61.49
2023-02-27T16:38:49.300Z,61.75
2023-02-27T16:41:21.581Z,61.92
2023-02-27T16:43:54.062Z,61.95
2023-02-27T16:46:27.005Z,62.22
2023-02-27T16:51:44.599Z,62.74
2023-02-27T16:54:20.320Z,62.72
2023-02-27T16:56:50.723Z,62.46
2023-02-27T16:59:32.964Z,62.21
2023-02-27T17:02:03.498Z,62.35
2023-02-27T17:04:34.903Z,62.42
2023-02-27T17:07:06.541Z,61.90
2023-02-27T17:09:35.277Z,62.10
2023-02-27T17:12:02.655Z,62.57
2023-02-27T17:14:31.122Z,62.38
2023-02-27T17:17:01.339Z,62.43
2023-02-27T17:19:29.039Z,62.47
2023-02-27T17:22:00.344Z,62.51
2023-02-27T17:24:28.996Z,62.66
2023-02-27T17:26:56.350Z,62.91
2023-02-27T17:29:24.321Z,62.75
2023-02-27T17:31:51.859Z,62.88
2023-02-27T17:34:20.203Z,62.47
2023-02-27T17:36:48.995Z,62.71
2023-02-27T17:39:21.744Z,63.00
2023-02-27T17:41:56.978Z,62.68
2023-02-27T17:44:33.398Z,62.63
2023-02-27T17:47:08.260Z,63.09
2023-02-27T17:49:37.267Z,63.00
2023-02-27T17:52:04.888Z,62.89
2023-02-27T17:54:33.569Z,62.90
2023-02-27T17:57:00.584Z,63.02
2023-02-27T17:59:27.852Z,63.36
2023-02-27T18:01:55.736Z,63.28
2023-02-27T18:04:24.848Z,63.23
2023-02-27T18:06:51.949Z,63.52
2023-02-27T18:09:21.854Z,63.05
2023-02-27T18:11:50.762Z,63.29
2023-02-27T18:14:18.162Z,62.84
2023-02-27T18:16:47.654Z,63.02
2023-02-27T18:19:15.069Z,63.10
2023-02-27T18:21:47.255Z,62.72
2023-02-27T18:24:16.783Z,62.91
2023-02-27T18:26:43.688Z,63.28
2023-02-27T18:29:20.468Z,63.45
2023-02-27T18:31:50.273Z,63.03
2023-02-27T18:34:19.748Z,63.25
2023-02-27T18:36:48.744Z,63.23
2023-02-27T18:39:16.429Z,62.99
2023-02-27T18:41:46.329Z,63.26
2023-02-27T18:44:17.839Z,63.13
2023-02-27T18:46:44.893Z,63.06
2023-02-27T18:49:12.786Z,63.07
2023-02-27T18:51:43.837Z,63.12
2023-02-27T18:54:14.534Z,62.66
2023-02-27T18:56:48.507Z,63.33
2023-02-27T18:59:17.132Z,63.03
2023-02-27T19:01:44.139Z,63.26
2023-02-27T19:04:11.714Z,63.70
2023-02-27T19:06:41.051Z,63.00
2023-02-27T19:09:10.229Z,63.36
2023-02-27T19:11:39.983Z,63.25
2023-02-27T19:14:11.580Z,63.00
2023-02-27T19:16:40.267Z,63.01
2023-02-27T19:19:11.852Z,63.51
2023-02-27T19:21:39.705Z,63.52
2023-02-27T19:24:08.360Z,63.42
2023-02-27T19:26:35.497Z,63.42
2023-02-27T19:29:04.289Z,63.60
2023-02-27T19:31:31.813Z,63.24
2023-02-27T19:34:01.914Z,63.47
2023-02-27T19:36:30.949Z,64.08
2023-02-27T19:38:58.951Z,63.87
2023-02-27T19:41:26.002Z,64.05
2023-02-27T19:43:53.691Z,64.27
2023-02-27T19:46:23.923Z,64.23
2023-02-27T19:48:52.097Z,64.32
2023-02-27T19:51:21.382Z,64.93
2023-02-27T19:53:49.090Z,64.58
2023-02-27T19:56:18.102Z,65.01
2023-02-27T19:58:46.466Z,64.58
2023-02-27T20:01:19.806Z,64.52
2023-02-27T20:03:47.233Z,64.42
2023-02-27T20:06:18.543Z,64.66
2023-02-27T20:08:47.390Z,64.79
2023-02-27T20:11:17.183Z,64.66
2023-02-27T20:13:44.777Z,64.35
2023-02-27T20:16:14.842Z,64.81
2023-02-27T20:18:42.948Z,64.71
2023-02-27T20:21:12.836Z,64.28
2023-02-27T20:23:42.003Z,64.19
2023-02-27T20:26:19.875Z,64.46
2023-02-27T20:28:48.090Z,64.11
2023-02-27T20:31:18.909Z,64.36
2023-02-27T20:33:46.459Z,64.75
2023-02-27T20:36:14.447Z,64.47
2023-02-27T20:38:42.627Z,64.35
2023-02-27T20:41:12.946Z,64.46
2023-02-27T20:43:46.246Z,64.91
2023-02-27T20:46:17.610Z,64.93
2023-02-27T20:48:51.682Z,65.29
2023-02-27T20:51:22.114Z,65.69
2023-02-27T20:53:51.313Z,66.06
2023-02-27T20:56:20.112Z,65.81
2023-02-27T20:58:51.140Z,65.76
2023-02-27T21:01:19.609Z,65.85
2023-02-27T21:03:47.726Z,66.21
2023-02-27T21:06:16.827Z,65.89
2023-02-27T21:08:46.378Z,65.64
2023-02-27T21:11:17.772Z,65.87
2023-02-27T21:13:46.861Z,65.53
2023-02-27T21:16:18.043Z,65.60
2023-02-27T21:18:45.507Z,65.26
2023-02-27T21:21:15.650Z,65.37
2023-02-27T21:23:43.351Z,64.89
2023-02-27T21:26:17.062Z,65.21
2023-02-27T21:28:47.998Z,65.04
2023-02-27T21:31:24.018Z,65.25
2023-02-27T21:33:53.000Z,64.87
2023-02-27T21:36:25.891Z,65.12
2023-02-27T21:38:56.468Z,65.06
2023-02-27T21:41:23.692Z,64.62
2023-02-27T21:43:50.695Z,65.06
2023-02-27T21:46:20.788Z,64.79
2023-02-27T21:48:48.143Z,64.34
2023-02-27T21:51:17.169Z,64.12
2023-02-27T21:53:46.905Z,64.22
2023-02-27T21:56:14.601Z,64.24
2023-02-27T21:58:41.667Z,64.28
2023-02-27T22:01:15.114Z,64.61
2023-02-27T22:03:46.944Z,64.01
2023-02-27T22:06:15.607Z,64.36
2023-02-27T22:08:43.573Z,63.93
2023-02-27T22:11:11.532Z,64.47
2023-02-27T22:13:38.512Z,63.81
2023-02-27T22:16:08.457Z,63.94
2023-02-27T22:18:35.962Z,63.79
2023-02-27T22:21:08.494Z,63.94
2023-02-27T22:23:36.664Z,63.88
2023-02-27T22:26:07.625Z,63.45
2023-02-27T22:28:34.977Z,63.84
2023-02-27T22:31:11.005Z,63.93
2023-02-27T22:33:38.989Z,63.45
2023-02-27T22:36:12.549Z,63.37
2023-02-27T22:38:39.469Z,63.22
2023-02-27T22:41:09.402Z,63.67
2023-02-27T22:43:38.371Z,64.03
2023-02-27T22:46:06.303Z,63.35
2023-02-27T22:48:33.627Z,63.92
2023-02-27T22:51:03.376Z,63.94
2023-02-27T22:53:38.390Z,63.52
2023-02-27T22:56:07.861Z,63.71
2023-02-27T22:58:37.242Z,63.29
2023-02-27T23:01:09.321Z,63.07
2023-02-27T23:03:36.740Z,63.51
2023-02-27T23:06:07.528Z,63.19
2023-02-27T23:08:36.455Z,63.42
2023-02-27T23:11:03.522Z,63.02
2023-02-27T23:13:32.091Z,63.58
2023-02-27T23:15:59.711Z,63.43
2023-02-27T23:18:26.671Z,63.46
2023-02-27T23:20:54.407Z,64.08
2023-02-27T23:23:22.978Z,64.26
2023-02-27T23:25:51.578Z,64.05
2023-02-27T23:28:18.469Z,63.66
2023-02-27T23:30:46.122Z,63.79
2023-02-27T23:33:13.000Z,64.30
2023-02-27T23:35:40.324Z,63.58
2023-02-27T23:38:07.843Z,63.90
2023-02-27T23:40:36.037Z,64.01
2023-02-27T23:43:04.501Z,63.92
2023-02-27T23:45:32.101Z,63.86
2023-02-27T23:48:00.876Z,63.55
2023-02-27T23:50:29.794Z,63.79
2023-02-27T23:52:58.965Z,63.85
2023-02-27T23:55:31.289Z,64.00
2023-02-27T23:57:59.584Z,63.46
